Schneifelwetter: Wetterstation Hallschlag, 537 m . NN
Wetterdaten: Sonntag, 23.09.2012
Datum Zeit Temp. A. Feuchte A. Luftdruck Regen Wind Richtung Richtung Sonnenschein T Regen Taupunkt Windchill
23.09.2012 00:14 0,1 C 86 % 1018 hPa 0,0 l/m 0,0 km/h (0 Bft) N 355 0 min 0 min -2,0 C 0,1 C
23.09.2012 00:29 0,1 C 86 % 1018 hPa 0,0 l/m 0,0 km/h (0 Bft) N 360 0 min 0 min -2,0 C 0,1 C
23.09.2012 00:44 0,1 C 87 % 1018 hPa 0,0 l/m 0,0 km/h (0 Bft) N 360 0 min 0 min -1,8 C 0,1 C
23.09.2012 00:59 0,1 C 87 % 1018 hPa 0,0 l/m 0,0 km/h (0 Bft) N 360 0 min 0 min -1,8 C 0,1 C
23.09.2012 01:14 0,1 C 87 % 1018 hPa 0,0 l/m 0,0 km/h (0 Bft) N 360 0 min 0 min -1,8 C 0,1 C
23.09.2012 01:29 0,3 C 87 % 1017 hPa 0,0 l/m 0,0 km/h (0 Bft) N 360 0 min 0 min -1,6 C 0,3 C
23.09.2012 01:44 0,6 C 88 % 1017 hPa 0,0 l/m 0,0 km/h (0 Bft) N 360 0 min 0 min -1,2 C 0,6 C
23.09.2012 01:59 0,9 C 88 % 1017 hPa 0,0 l/m 0,0 km/h (0 Bft) N 360 0 min 0 min -0,9 C 0,9 C
23.09.2012 02:14 1,1 C 88 % 1017 hPa 0,0 l/m 0,0 km/h (0 Bft) N 360 0 min 0 min -0,7 C 1,1 C
23.09.2012 02:29 1,2 C 88 % 1017 hPa 0,0 l/m 0,0 km/h (0 Bft) N 360 0 min 0 min -0,6 C 1,2 C
23.09.2012 02:44 1,2 C 88 % 1017 hPa 0,0 l/m 0,0 km/h (0 Bft) N 360 0 min 0 min -0,6 C 1,2 C
23.09.2012 02:59 1,2 C 88 % 1017 hPa 0,0 l/m 0,0 km/h (0 Bft) N 355 0 min 0 min -0,6 C 1,2 C
23.09.2012 03:14 1,3 C 88 % 1017 hPa 0,0 l/m 0,0 km/h (0 Bft) N 355 0 min 0 min -0,5 C 1,3 C
23.09.2012 03:29 1,5 C 88 % 1017 hPa 0,0 l/m 0,0 km/h (0 Bft) N 355 0 min 0 min -0,3 C 1,5 C
23.09.2012 03:44 1,6 C 88 % 1016 hPa 0,0 l/m 0,0 km/h (0 Bft) N 355 0 min 0 min -0,2 C 1,6 C
23.09.2012 03:59 1,7 C 88 % 1016 hPa 0,0 l/m 1,9 km/h (1 Bft) N 355 0 min 0 min -0,1 C 1,7 C
23.09.2012 04:14 1,8 C 88 % 1016 hPa 0,0 l/m 0,0 km/h (0 Bft) N 355 0 min 0 min 0,0 C 1,8 C
23.09.2012 04:29 1,9 C 88 % 1016 hPa 0,0 l/m 0,0 km/h (0 Bft) N 355 0 min 0 min 0,1 C 1,9 C
23.09.2012 04:44 1,7 C 88 % 1016 hPa 0,0 l/m 0,0 km/h (0 Bft) N 355 0 min 0 min -0,1 C 1,7 C
23.09.2012 04:59 1,7 C 89 % 1016 hPa 0,0 l/m 0,0 km/h (0 Bft) N 355 0 min 0 min 0,1 C 1,7 C
23.09.2012 05:14 1,8 C 89 % 1016 hPa 0,0 l/m 0,0 km/h (0 Bft) N 355 0 min 0 min 0,2 C 1,8 C
23.09.2012 05:29 1,9 C 89 % 1016 hPa 0,0 l/m 0,0 km/h (0 Bft) N 355 0 min 0 min 0,3 C 1,9 C
23.09.2012 05:44 2,0 C 89 % 1016 hPa 0,0 l/m 0,0 km/h (0 Bft) N 355 0 min 0 min 0,4 C 2,0 C
23.09.2012 05:59 2,3 C 90 % 1016 hPa 0,0 l/m 0,0 km/h (0 Bft) N 355 0 min 0 min 0,8 C 2,3 C
23.09.2012 06:14 2,4 C 90 % 1016 hPa 0,0 l/m 0,0 km/h (0 Bft) N 355 0 min 0 min 0,9 C 2,4 C
23.09.2012 06:29 2,6 C 90 % 1016 hPa 0,0 l/m 0,0 km/h (0 Bft) N 355 0 min 0 min 1,1 C 2,6 C
23.09.2012 06:44 2,8 C 90 % 1016 hPa 0,0 l/m 0,0 km/h (0 Bft) N 355 0 min 0 min 1,3 C 2,8 C
23.09.2012 06:59 3,0 C 90 % 1016 hPa 0,0 l/m 0,0 km/h (0 Bft) N 355 0 min 0 min 1,5 C 3,0 C
23.09.2012 07:14 3,2 C 91 % 1015 hPa 0,0 l/m 2,3 km/h (1 Bft) N22.5 5 0 min 0 min 1,9 C 3,2 C
23.09.2012 07:29 3,9 C 90 % 1015 hPa 0,0 l/m 7,4 km/h (2 Bft) N67.5 10 0 min 0 min 2,4 C 3,0 C
23.09.2012 07:44 3,9 C 90 % 1015 hPa 0,0 l/m 0,0 km/h (0 Bft) N-NO 15 0 min 0 min 2,4 C 3,9 C
23.09.2012 07:59 4,1 C 90 % 1015 hPa 0,0 l/m 0,0 km/h (0 Bft) N-NO 15 0 min 0 min 2,6 C 4,1 C
23.09.2012 08:14 4,5 C 90 % 1015 hPa 0,0 l/m 0,0 km/h (0 Bft) N-NO 15 0 min 0 min 3,0 C 4,5 C
23.09.2012 08:29 5,2 C 90 % 1015 hPa 0,0 l/m 8,5 km/h (2 Bft) O45 80 0 min 0 min 3,7 C 3,4 C
23.09.2012 08:44 5,8 C 90 % 1015 hPa 0,0 l/m 7,8 km/h (2 Bft) O 80 0 min 0 min 4,3 C 4,6 C
23.09.2012 08:59 6,2 C 88 % 1015 hPa 0,0 l/m 11,0 km/h (2 Bft) O67.5 95 0 min 0 min 4,4 C 2,7 C
23.09.2012 09:14 6,5 C 87 % 1015 hPa 0,0 l/m 11,8 km/h (2 Bft) O45 80 0 min 0 min 4,5 C 2,6 C
23.09.2012 09:29 7,0 C 87 % 1015 hPa 0,0 l/m 9,7 km/h (2 Bft) O22.5 80 0 min 0 min 5,0 C 4,5 C
23.09.2012 09:44 7,6 C 86 % 1015 hPa 0,0 l/m 10,4 km/h (2 Bft) O-NO45 75 0 min 0 min 5,4 C 4,7 C
23.09.2012 10:00 8,3 C 84 % 1015 hPa 0,0 l/m 13,2 km/h (3 Bft) O-NO45 70 0 min 0 min 5,8 C 3,9 C
23.09.2012 10:14 8,8 C 82 % 1015 hPa 0,0 l/m 16,0 km/h (3 Bft) O45 80 0 min 0 min 5,9 C 3,3 C
23.09.2012 10:29 9,2 C 81 % 1014 hPa 0,0 l/m 16,6 km/h (3 Bft) O45 85 0 min 0 min 6,1 C 3,5 C
23.09.2012 10:44 9,8 C 80 % 1014 hPa 0,0 l/m 15,3 km/h (3 Bft) O45 80 0 min 0 min 6,5 C 4,8 C
23.09.2012 10:59 10,6 C 78 % 1014 hPa 0,0 l/m 12,8 km/h (3 Bft) O45 90 0 min 0 min 6,9 C 6,8 C
23.09.2012 11:14 11,2 C 76 % 1014 hPa 0,0 l/m 15,7 km/h (3 Bft) O45 90 0 min 0 min 7,1 C 6,3 C
23.09.2012 11:30 11,6 C 74 % 1013 hPa 0,0 l/m 14,3 km/h (3 Bft) O-SO67.5 120 0 min 0 min 7,1 C 7,4 C
23.09.2012 11:44 11,9 C 73 % 1013 hPa 0,0 l/m 18,5 km/h (3 Bft) SO45 125 0 min 0 min 7,2 C 6,2 C
23.09.2012 11:59 12,8 C 71 % 1013 hPa 0,0 l/m 15,0 km/h (3 Bft) O-SO45 120 0 min 0 min 7,7 C 8,5 C
23.09.2012 12:14 13,0 C 68 % 1013 hPa 0,0 l/m 20,1 km/h (4 Bft) O-SO67.5 115 0 min 0 min 7,2 C 7,1 C
23.09.2012 12:29 13,2 C 68 % 1012 hPa 0,0 l/m 20,3 km/h (4 Bft) S-SO67.5 160 0 min 0 min 7,4 C 7,3 C
23.09.2012 12:44 14,2 C 64 % 1012 hPa 0,0 l/m 21,4 km/h (4 Bft) O-SO67.5 110 0 min 0 min 7,5 C 8,4 C
23.09.2012 13:00 14,5 C 62 % 1012 hPa 0,0 l/m 25,1 km/h (4 Bft) SO67.5 140 0 min 0 min 7,3 C 7,9 C
23.09.2012 13:14 15,0 C 62 % 1012 hPa 0,0 l/m 21,8 km/h (4 Bft) S45 180 0 min 0 min 7,8 C 9,3 C
23.09.2012 13:29 15,2 C 60 % 1011 hPa 0,0 l/m 17,2 km/h (3 Bft) SO45 140 0 min 0 min 7,5 C 10,8 C
23.09.2012 13:44 15,3 C 61 % 1011 hPa 0,0 l/m 20,0 km/h (4 Bft) SO67.5 135 0 min 0 min 7,8 C 10,1 C
23.09.2012 13:59 15,7 C 60 % 1011 hPa 0,0 l/m 20,9 km/h (4 Bft) O-SO67.5 105 0 min 0 min 8,0 C 10,4 C
23.09.2012 14:14 15,4 C 60 % 1011 hPa 0,0 l/m 19,1 km/h (3 Bft) SO67.5 130 0 min 0 min 7,7 C 10,5 C
23.09.2012 14:30 15,0 C 60 % 1011 hPa 0,0 l/m 23,5 km/h (4 Bft) O67.5 100 0 min 0 min 7,3 C 8,9 C
23.09.2012 14:45 15,2 C 59 % 1010 hPa 0,0 l/m 23,6 km/h (4 Bft) S-SO67.5 155 0 min 0 min 7,2 C 9,2 C
23.09.2012 14:59 15,8 C 59 % 1010 hPa 0,0 l/m 21,0 km/h (4 Bft) S-SO45 155 0 min 0 min 7,8 C 10,5 C
23.09.2012 15:14 15,4 C 59 % 1010 hPa 0,0 l/m 22,8 km/h (4 Bft) S-SO22.5 150 0 min 0 min 7,4 C 9,6 C
23.09.2012 15:29 15,2 C 60 % 1010 hPa 0,0 l/m 21,1 km/h (4 Bft) SO45 130 0 min 0 min 7,5 C 9,7 C
23.09.2012 15:44 15,2 C 60 % 1009 hPa 0,0 l/m 19,3 km/h (3 Bft) SO22.5 135 0 min 0 min 7,5 C 10,2 C
23.09.2012 15:59 15,2 C 60 % 1009 hPa 0,0 l/m 19,8 km/h (3 Bft) SO45 140 0 min 0 min 7,5 C 10,1 C
23.09.2012 16:15 15,2 C 60 % 1009 hPa 0,0 l/m 16,1 km/h (3 Bft) SO67.5 135 0 min 0 min 7,5 C 11,1 C
23.09.2012 16:29 15,1 C 61 % 1009 hPa 0,0 l/m 13,3 km/h (3 Bft) O67.5 90 0 min 0 min 7,6 C 11,9 C
23.09.2012 16:44 14,7 C 62 % 1008 hPa 0,0 l/m 19,0 km/h (3 Bft) O-SO45 115 0 min 0 min 7,5 C 9,6 C
23.09.2012 16:59 14,5 C 63 % 1008 hPa 0,0 l/m 15,1 km/h (3 Bft) O-SO45 120 0 min 0 min 7,5 C 10,6 C
23.09.2012 17:14 14,1 C 64 % 1008 hPa 0,0 l/m 21,5 km/h (4 Bft) SO45 125 0 min 0 min 7,4 C 8,2 C
23.09.2012 17:29 13,8 C 65 % 1008 hPa 0,0 l/m 24,4 km/h (4 Bft) SO67.5 140 0 min 0 min 7,3 C 7,1 C
23.09.2012 17:45 13,5 C 66 % 1007 hPa 0,0 l/m 16,6 km/h (3 Bft) SO67.5 135 0 min 0 min 7,3 C 8,8 C
23.09.2012 18:00 13,2 C 68 % 1007 hPa 0,0 l/m 22,4 km/h (4 Bft) SO45 135 0 min 0 min 7,4 C 6,8 C
23.09.2012 18:14 13,0 C 69 % 1007 hPa 0,0 l/m 20,3 km/h (4 Bft) O45 100 0 min 0 min 7,4 C 7,1 C
23.09.2012 18:29 13,0 C 70 % 1006 hPa 0,0 l/m 16,6 km/h (3 Bft) O-SO67.5 115 0 min 0 min 7,7 C 8,2 C
23.09.2012 18:44 12,8 C 71 % 1006 hPa 0,0 l/m 20,3 km/h (4 Bft) O-SO22.5 115 0 min 0 min 7,7 C 6,8 C
23.09.2012 18:59 12,6 C 72 % 1006 hPa 0,0 l/m 14,2 km/h (3 Bft) SO22.5 130 0 min 0 min 7,7 C 8,6 C
23.09.2012 19:14 12,4 C 72 % 1006 hPa 0,0 l/m 17,5 km/h (3 Bft) S-SO45 155 0 min 0 min 7,5 C 7,2 C
23.09.2012 19:30 11,9 C 73 % 1006 hPa 0,0 l/m 7,6 km/h (2 Bft) O-SO45 120 0 min 0 min 7,2 C 11,1 C
23.09.2012 19:44 11,4 C 75 % 1005 hPa 0,0 l/m 14,1 km/h (3 Bft) S-SO45 160 0 min 0 min 7,1 C 7,2 C
23.09.2012 19:59 11,1 C 76 % 1005 hPa 0,0 l/m 23,8 km/h (4 Bft) SO45 135 0 min 0 min 7,0 C 3,6 C
23.09.2012 20:14 11,0 C 77 % 1005 hPa 0,0 l/m 14,9 km/h (3 Bft) S-SO45 155 0 min 0 min 7,1 C 6,4 C
23.09.2012 20:29 10,9 C 78 % 1005 hPa 0,0 l/m 14,3 km/h (3 Bft) S-SO45 155 0 min 0 min 7,2 C 6,5 C
23.09.2012 20:44 10,9 C 79 % 1005 hPa 0,0 l/m 19,0 km/h (3 Bft) SO45 140 0 min 0 min 7,4 C 4,8 C
23.09.2012 21:00 11,0 C 78 % 1005 hPa 0,0 l/m 14,6 km/h (3 Bft) S-SO22.5 150 0 min 0 min 7,3 C 6,5 C
23.09.2012 21:15 10,9 C 78 % 1005 hPa 0,0 l/m 11,9 km/h (2 Bft) SO67.5 125 0 min 0 min 7,2 C 7,6 C
23.09.2012 21:29 10,7 C 80 % 1004 hPa 0,0 l/m 4,3 km/h (1 Bft) SO 130 0 min 0 min 7,4 C 10,7 C
23.09.2012 21:44 10,6 C 80 % 1004 hPa 0,0 l/m 4,8 km/h (1 Bft) O-SO22.5 120 0 min 0 min 7,3 C 10,6 C
23.09.2012 21:59 10,4 C 80 % 1004 hPa 0,0 l/m 4,5 km/h (1 Bft) O 80 0 min 0 min 7,1 C 10,4 C
23.09.2012 22:14 10,3 C 82 % 1003 hPa 0,0 l/m 10,0 km/h (2 Bft) SO22.5 125 0 min 0 min 7,4 C 7,9 C
23.09.2012 22:29 10,4 C 83 % 1003 hPa 0,0 l/m 10,1 km/h (2 Bft) SO22.5 130 0 min 0 min 7,6 C 8,0 C
23.09.2012 22:45 10,7 C 84 % 1003 hPa 0,0 l/m 14,3 km/h (3 Bft) S-SO22.5 155 0 min 0 min 8,1 C 6,3 C
23.09.2012 22:44 10,7 C 84 % 1003 hPa 0,0 l/m 14,3 km/h (3 Bft) S-SO22.5 155 0 min 0 min 8,1 C 6,3 C
23.09.2012 22:59 11,2 C 84 % 1003 hPa 0,0 l/m 13,0 km/h (3 Bft) S-SO22.5 160 0 min 0 min 8,6 C 7,4 C
23.09.2012 23:14 11,4 C 85 % 1002 hPa 0,0 l/m 18,3 km/h (3 Bft) S-SO45 150 0 min 0 min 9,0 C 5,6 C
23.09.2012 23:29 11,6 C 85 % 1002 hPa 0,0 l/m 16,0 km/h (3 Bft) S67.5 175 0 min 0 min 9,2 C 6,7 C
23.09.2012 23:45 11,7 C 85 % 1002 hPa 0,0 l/m 14,3 km/h (3 Bft) S-SO45 150 0 min 0 min 9,3 C 7,5 C
23.09.2012 23:59 11,6 C 85 % 1002 hPa 0,0 l/m 6,8 km/h (2 Bft) SO45 135 0 min 0 min 9,2 C 11,3 C
_ Min-Zeit 00:14 14:45 23:14 - 00:14 - - - - 00:14 00:14
Minimum _ 0,1 C 59 % 1002 hPa - 0,0 km/h (0 Bft) - - - - -2,0 C 0,1 C
_ Max-Zeit 14:59 07:14 00:14 00:14 13:00 - - 00:14 00:14 23:45 16:29
Maximum _ 15,8 C 91 % 1018 hPa 0,0 l/m 25,1 km/h
SO (4 Bft)
- - 0 min 0 min 9,3 C 11,9 C
Durchschnitt _ 8,5 C 78 % 1012 hPa #0,0 l/m 10,6 km/h (2 Bft) SO - #0 min. #0 min. 4,8 C 5,6 C